createdAt,value
2023-04-11T00:00:08.114Z,86.90
2023-04-11T00:01:09.830Z,86.63
2023-04-11T00:02:11.642Z,86.73
2023-04-11T00:03:13.623Z,86.76
2023-04-11T00:04:17.182Z,86.97
2023-04-11T00:05:18.978Z,86.94
2023-04-11T00:06:20.676Z,86.84
2023-04-11T00:07:22.376Z,86.87
2023-04-11T00:08:24.120Z,86.64
2023-04-11T00:09:25.819Z,86.60
2023-04-11T00:10:27.632Z,86.38
2023-04-11T00:11:29.585Z,86.46
2023-04-11T00:12:31.246Z,86.52
2023-04-11T00:13:32.960Z,86.54
2023-04-11T00:14:34.719Z,86.31
2023-04-11T00:15:36.465Z,86.61
2023-04-11T00:16:38.202Z,86.99
2023-04-11T00:17:39.945Z,86.91
2023-04-11T00:18:41.615Z,86.96
2023-04-11T00:19:43.867Z,86.95
2023-04-11T00:20:45.557Z,87.00
2023-04-11T00:21:47.303Z,87.32
2023-04-11T00:22:48.950Z,87.46
2023-04-11T00:23:52.910Z,87.61
2023-04-11T00:24:54.884Z,87.78
2023-04-11T00:25:56.577Z,87.75
2023-04-11T00:26:58.272Z,87.81
2023-04-11T00:27:59.942Z,87.87
2023-04-11T00:29:01.689Z,88.26
2023-04-11T00:30:05.025Z,88.38
2023-04-11T00:31:07.251Z,88.30
2023-04-11T00:32:09.011Z,87.98
2023-04-11T00:33:10.754Z,88.12
2023-04-11T00:34:12.494Z,88.00
2023-04-11T00:35:14.277Z,87.97
2023-04-11T00:36:16.139Z,87.63
2023-04-11T00:37:18.316Z,88.02
2023-04-11T00:38:20.067Z,88.00
2023-04-11T00:39:22.264Z,87.92
2023-04-11T00:40:23.927Z,88.05
2023-04-11T00:41:25.663Z,88.03
2023-04-11T00:42:27.410Z,88.00
2023-04-11T00:43:29.090Z,88.14
2023-04-11T00:44:30.773Z,87.99
2023-04-11T00:45:33.536Z,88.01
2023-04-11T00:46:35.294Z,87.98
2023-04-11T00:47:37.101Z,87.70
2023-04-11T00:48:38.879Z,87.90
2023-04-11T00:49:41.321Z,87.87
2023-04-11T00:50:43.404Z,87.93
2023-04-11T00:51:45.155Z,87.92
2023-04-11T00:52:49.722Z,88.04
2023-04-11T00:53:51.493Z,87.91
2023-04-11T00:54:53.248Z,87.97
2023-04-11T00:55:55.034Z,87.88
2023-04-11T00:57:02.371Z,87.77
2023-04-11T00:58:04.328Z,88.07
2023-04-11T00:59:06.193Z,87.94
2023-04-11T01:00:08.726Z,87.90
2023-04-11T01:01:10.431Z,88.07
2023-04-11T01:02:12.222Z,88.07
2023-04-11T01:03:14.036Z,87.93
2023-04-11T01:04:16.124Z,88.25
2023-04-11T01:05:18.010Z,88.28
2023-04-11T01:06:20.440Z,88.31
2023-04-11T01:07:24.465Z,88.73
2023-04-11T01:08:26.970Z,88.78
2023-04-11T01:09:29.223Z,88.85
2023-04-11T01:10:31.420Z,88.66
2023-04-11T01:11:34.155Z,88.59
2023-04-11T01:12:38.213Z,88.67
2023-04-11T01:13:41.461Z,88.45
2023-04-11T01:14:43.335Z,88.33
2023-04-11T01:15:45.094Z,88.22
2023-04-11T01:16:47.701Z,88.12
2023-04-11T01:17:49.635Z,87.83
2023-04-11T01:18:51.555Z,87.82
2023-04-11T01:19:53.321Z,87.86
2023-04-11T01:20:55.098Z,87.74
2023-04-11T01:21:58.685Z,87.63
2023-04-11T01:23:02.348Z,87.56
2023-04-11T01:24:04.328Z,87.43
2023-04-11T01:25:06.572Z,87.13
2023-04-11T01:26:08.296Z,87.56
2023-04-11T01:27:10.216Z,87.47
2023-04-11T01:28:11.929Z,87.26
2023-04-11T01:29:13.662Z,87.47
2023-04-11T01:30:15.330Z,87.55
2023-04-11T01:31:17.027Z,87.46
2023-04-11T01:32:18.836Z,87.64
2023-04-11T01:33:20.754Z,87.91
2023-04-11T01:34:25.497Z,88.18
2023-04-11T01:35:27.176Z,88.40
2023-04-11T01:36:30.700Z,88.85
2023-04-11T01:37:32.552Z,88.44
2023-04-11T01:38:34.245Z,88.60
2023-04-11T01:39:36.111Z,88.70
2023-04-11T01:40:38.613Z,88.63
2023-04-11T01:41:41.825Z,88.52
2023-04-11T01:42:44.690Z,88.46
2023-04-11T01:43:46.636Z,88.43
2023-04-11T01:44:50.429Z,88.68
2023-04-11T01:45:52.858Z,88.65
2023-04-11T01:46:54.895Z,88.61
2023-04-11T01:47:56.963Z,88.70
2023-04-11T01:48:59.984Z,88.48
2023-04-11T01:50:01.950Z,88.49
2023-04-11T01:51:22.333Z,88.35
2023-04-11T01:52:24.002Z,88.16
2023-04-11T01:53:25.751Z,88.24
2023-04-11T01:54:27.400Z,88.20
2023-04-11T01:55:29.076Z,88.06
2023-04-11T01:56:30.702Z,88.21
2023-04-11T01:57:32.501Z,87.77
2023-04-11T01:58:34.191Z,87.91
2023-04-11T01:59:36.143Z,87.80
2023-04-11T02:00:37.769Z,87.99
2023-04-11T02:01:43.368Z,88.03
2023-04-11T02:02:45.342Z,87.86
2023-04-11T02:03:47.266Z,88.18
2023-04-11T02:04:48.971Z,88.26
2023-04-11T02:05:50.724Z,88.37
2023-04-11T02:06:52.441Z,88.38
2023-04-11T02:07:54.163Z,88.35
2023-04-11T02:08:56.044Z,88.26
2023-04-11T02:09:58.668Z,88.31
2023-04-11T02:11:00.410Z,88.24
2023-04-11T02:12:02.107Z,88.28
2023-04-11T02:13:03.940Z,88.32
2023-04-11T02:14:05.624Z,88.35
2023-04-11T02:15:07.845Z,88.49
2023-04-11T02:16:11.786Z,88.69
2023-04-11T02:17:13.729Z,88.79
2023-04-11T02:18:15.404Z,88.99
2023-04-11T02:19:17.087Z,88.69
2023-04-11T02:20:18.791Z,89.10
2023-04-11T02:21:20.528Z,89.21
2023-04-11T02:22:22.257Z,89.14
2023-04-11T02:23:24.385Z,89.13
2023-04-11T02:24:28.464Z,89.33
2023-04-11T02:25:33.048Z,89.33
2023-04-11T02:26:34.776Z,89.64
2023-04-11T02:27:36.471Z,89.76
2023-04-11T02:28:38.158Z,89.92
2023-04-11T02:29:39.919Z,90.40
2023-04-11T02:30:41.733Z,90.51
2023-04-11T02:31:43.610Z,90.51
2023-04-11T02:32:45.424Z,90.50
2023-04-11T02:33:47.208Z,90.33
2023-04-11T02:34:48.893Z,90.31
2023-04-11T02:35:50.647Z,90.28
2023-04-11T02:36:52.681Z,90.32
2023-04-11T02:37:54.394Z,90.38
2023-04-11T02:38:56.243Z,90.45
2023-04-11T02:39:58.522Z,90.49
2023-04-11T02:41:00.374Z,90.60
2023-04-11T02:42:02.176Z,90.38
2023-04-11T02:43:04.023Z,90.49
2023-04-11T02:44:05.977Z,90.39
2023-04-11T02:45:11.325Z,90.35
2023-04-11T02:46:13.459Z,90.42
2023-04-11T02:47:15.527Z,90.48
2023-04-11T02:48:17.317Z,90.31
2023-04-11T02:49:19.035Z,90.23
2023-04-11T02:50:20.805Z,90.33
2023-04-11T02:51:22.530Z,90.38
2023-04-11T02:52:24.315Z,90.24
2023-04-11T02:53:26.021Z,89.98
2023-04-11T02:54:27.719Z,90.03
2023-04-11T02:55:29.473Z,89.67
2023-04-11T02:56:31.149Z,89.52
2023-04-11T02:57:32.878Z,89.30
2023-04-11T02:58:34.502Z,88.99
2023-04-11T02:59:36.281Z,88.86
2023-04-11T03:00:37.903Z,88.53
2023-04-11T03:01:39.725Z,88.34
2023-04-11T03:02:41.763Z,87.99
2023-04-11T03:03:44.542Z,87.86
2023-04-11T03:04:46.345Z,88.05
2023-04-11T03:05:48.079Z,88.02
2023-04-11T03:06:49.814Z,87.84
2023-04-11T03:07:51.580Z,87.91
2023-04-11T03:08:53.414Z,87.82
2023-04-11T03:09:55.324Z,87.70
2023-04-11T03:10:57.000Z,87.84
2023-04-11T03:11:58.722Z,87.94
2023-04-11T03:13:00.419Z,88.20
2023-04-11T03:14:02.414Z,87.95
2023-04-11T03:15:04.446Z,88.22
2023-04-11T03:16:06.680Z,88.10
2023-04-11T03:17:08.476Z,87.94
2023-04-11T03:18:10.616Z,88.26
2023-04-11T03:19:12.290Z,88.11
2023-04-11T03:20:13.983Z,88.42
2023-04-11T03:21:15.680Z,88.23
2023-04-11T03:22:17.473Z,88.34
2023-04-11T03:23:19.197Z,88.37
2023-04-11T03:24:20.926Z,88.17
2023-04-11T03:25:22.691Z,87.99
2023-04-11T03:26:24.707Z,87.95
2023-04-11T03:27:26.467Z,87.90
2023-04-11T03:28:28.148Z,88.02
2023-04-11T03:29:29.897Z,88.25
2023-04-11T03:30:31.864Z,88.50
2023-04-11T03:31:33.756Z,88.89
2023-04-11T03:32:35.489Z,88.89
2023-04-11T03:33:37.744Z,88.98
2023-04-11T03:34:39.410Z,89.00
2023-04-11T03:35:41.155Z,89.06
2023-04-11T03:36:42.843Z,88.94
2023-04-11T03:37:44.595Z,88.97
2023-04-11T03:38:46.277Z,88.91
2023-04-11T03:39:47.936Z,89.11
2023-04-11T03:40:49.634Z,88.71
2023-04-11T03:41:51.352Z,88.92
2023-04-11T03:42:53.053Z,88.73
2023-04-11T03:43:54.767Z,88.65
2023-04-11T03:44:56.410Z,88.50
2023-04-11T03:45:58.192Z,88.56
2023-04-11T03:46:59.954Z,88.80
2023-04-11T03:48:01.712Z,88.66
2023-04-11T03:49:03.482Z,88.54
2023-04-11T03:50:07.121Z,88.75
2023-04-11T03:51:08.870Z,88.56
2023-04-11T03:52:10.596Z,88.84
2023-04-11T03:53:12.433Z,88.79
2023-04-11T03:54:14.098Z,88.69
2023-04-11T03:55:15.835Z,89.07
2023-04-11T03:56:17.500Z,88.95
2023-04-11T03:57:19.153Z,89.24
2023-04-11T03:58:20.876Z,89.33
2023-04-11T03:59:22.725Z,89.16
2023-04-11T04:00:24.523Z,89.48
2023-04-11T04:01:26.284Z,89.56
2023-04-11T04:02:28.206Z,89.52
2023-04-11T04:03:30.222Z,89.67
2023-04-11T04:04:33.198Z,89.84
2023-04-11T04:05:34.906Z,90.14
2023-04-11T04:06:36.606Z,89.94
2023-04-11T04:07:38.315Z,89.80
2023-04-11T04:08:40.561Z,89.99
2023-04-11T04:09:42.203Z,89.98
2023-04-11T04:10:43.861Z,89.74
2023-04-11T04:11:45.474Z,89.89
2023-04-11T04:12:47.111Z,89.94
2023-04-11T04:13:48.760Z,90.10
2023-04-11T04:14:50.406Z,90.04
2023-04-11T04:15:52.108Z,89.73
2023-04-11T04:16:53.904Z,89.83
2023-04-11T04:17:55.731Z,89.81
2023-04-11T04:18:57.521Z,89.76
2023-04-11T04:19:59.154Z,89.91
2023-04-11T04:21:00.810Z,89.84
2023-04-11T04:22:02.502Z,89.88
2023-04-11T04:23:04.192Z,89.35
2023-04-11T04:24:06.232Z,89.35
2023-04-11T04:25:08.395Z,89.37
2023-04-11T04:26:10.100Z,89.43
2023-04-11T04:27:12.766Z,89.43
2023-04-11T04:28:14.407Z,89.25
2023-04-11T04:29:16.095Z,89.35
2023-04-11T04:30:18.449Z,89.12
2023-04-11T04:31:20.152Z,88.99
2023-04-11T04:32:23.810Z,88.82
2023-04-11T04:33:27.540Z,88.88
2023-04-11T04:34:29.439Z,88.59
2023-04-11T04:35:31.226Z,88.58
2023-04-11T04:36:32.921Z,88.72
2023-04-11T04:37:34.619Z,88.68
2023-04-11T04:38:36.269Z,88.70
2023-04-11T04:39:37.970Z,88.42
2023-04-11T04:40:39.692Z,88.63
2023-04-11T04:41:41.321Z,88.89
2023-04-11T04:42:43.104Z,89.03
2023-04-11T04:43:44.793Z,89.17
2023-04-11T04:44:46.488Z,88.68
2023-04-11T04:45:48.228Z,88.51
2023-04-11T04:46:58.710Z,88.44
2023-04-11T04:48:00.457Z,88.43
2023-04-11T04:49:06.522Z,88.55
2023-04-11T04:50:08.601Z,88.59
2023-04-11T04:51:10.352Z,88.74
2023-04-11T04:52:15.645Z,88.60
2023-04-11T04:53:17.366Z,88.44
2023-04-11T04:54:19.082Z,88.61
2023-04-11T04:55:20.763Z,88.62
2023-04-11T04:56:22.516Z,88.32
2023-04-11T04:57:28.384Z,88.34
2023-04-11T04:58:30.104Z,88.56
2023-04-11T04:59:31.812Z,88.34
2023-04-11T05:00:33.513Z,88.10
2023-04-11T05:01:35.401Z,88.46
2023-04-11T05:02:37.354Z,88.52
2023-04-11T05:03:39.351Z,88.42
2023-04-11T05:04:41.168Z,88.48
2023-04-11T05:05:42.785Z,88.60
2023-04-11T05:06:44.460Z,88.64
2023-04-11T05:07:46.195Z,88.20
2023-04-11T05:08:47.928Z,88.10
2023-04-11T05:09:49.640Z,87.84
2023-04-11T05:10:51.317Z,87.98
2023-04-11T05:11:53.035Z,87.78
2023-04-11T05:12:55.396Z,87.76
2023-04-11T05:13:57.454Z,88.14
2023-04-11T05:14:59.484Z,88.08
2023-04-11T05:16:01.211Z,87.95
2023-04-11T05:17:03.046Z,87.89
2023-04-11T05:18:04.765Z,88.04
2023-04-11T05:19:06.475Z,87.89
2023-04-11T05:20:08.590Z,88.04
2023-04-11T05:21:10.371Z,88.12
2023-04-11T05:22:12.047Z,87.96
2023-04-11T05:23:13.698Z,87.90
2023-04-11T05:24:15.486Z,87.75
2023-04-11T05:25:17.347Z,87.87
2023-04-11T05:26:19.084Z,87.87
2023-04-11T05:27:20.782Z,88.04
2023-04-11T05:28:22.477Z,88.15
2023-04-11T05:29:24.272Z,88.25
2023-04-11T05:30:26.264Z,88.06
2023-04-11T05:31:28.142Z,88.12
2023-04-11T05:32:29.837Z,88.33
2023-04-11T05:33:31.627Z,88.09
2023-04-11T05:34:33.355Z,87.95
2023-04-11T05:35:35.157Z,87.58
2023-04-11T05:36:36.935Z,87.36
2023-04-11T05:37:38.668Z,86.99
2023-04-11T05:38:41.309Z,87.03
2023-04-11T05:39:43.065Z,86.65
2023-04-11T05:40:44.785Z,86.49
2023-04-11T05:41:46.522Z,86.31
2023-04-11T05:42:48.180Z,86.38
2023-04-11T05:43:50.027Z,86.33
2023-04-11T05:44:51.771Z,85.34
2023-04-11T05:45:53.480Z,85.35
2023-04-11T05:46:55.211Z,85.36
2023-04-11T05:47:56.991Z,85.47
2023-04-11T05:48:59.643Z,85.35
2023-04-11T05:50:01.425Z,85.20
2023-04-11T05:51:03.163Z,85.08
2023-04-11T05:52:05.010Z,85.10
2023-04-11T05:53:07.192Z,85.13
2023-04-11T05:54:08.899Z,85.26
2023-04-11T05:55:11.136Z,85.21
2023-04-11T05:56:12.946Z,85.08
2023-04-11T05:57:14.704Z,85.23
2023-04-11T05:58:16.407Z,85.27
2023-04-11T05:59:21.584Z,84.76
2023-04-11T06:00:27.090Z,83.80
2023-04-11T06:01:28.767Z,84.16
2023-04-11T06:02:30.544Z,84.87
2023-04-11T06:03:32.433Z,84.07
2023-04-11T06:04:34.502Z,83.50
2023-04-11T06:05:36.767Z,83.00
2023-04-11T06:06:38.411Z,82.73
2023-04-11T06:07:40.478Z,83.11
2023-04-11T06:08:42.237Z,83.04
2023-04-11T06:09:44.008Z,81.56
2023-04-11T06:10:45.860Z,81.61
2023-04-11T06:11:47.690Z,81.45
2023-04-11T06:12:49.357Z,80.06
2023-04-11T06:13:51.133Z,81.33
2023-04-11T06:14:52.836Z,80.93
2023-04-11T06:15:54.664Z,80.59
2023-04-11T06:16:56.550Z,81.09
2023-04-11T06:17:58.370Z,81.64
2023-04-11T06:19:00.089Z,80.10
2023-04-11T06:20:03.528Z,79.07
2023-04-11T06:21:06.601Z,79.62
2023-04-11T06:22:08.339Z,79.66
2023-04-11T06:23:10.001Z,80.30
2023-04-11T06:24:11.815Z,79.76
2023-04-11T06:25:13.563Z,79.33
2023-04-11T06:26:15.254Z,79.38
2023-04-11T06:27:17.006Z,80.00
2023-04-11T06:28:18.668Z,79.28
2023-04-11T06:29:20.356Z,78.68
2023-04-11T06:30:22.043Z,76.97
2023-04-11T06:31:23.869Z,78.02
2023-04-11T06:32:25.761Z,78.08
2023-04-11T06:33:27.435Z,75.86
2023-04-11T06:34:29.123Z,76.00
2023-04-11T06:35:30.986Z,76.70
2023-04-11T06:36:34.035Z,77.01
2023-04-11T06:37:35.782Z,77.59
2023-04-11T06:38:37.500Z,76.67
2023-04-11T06:39:39.341Z,76.60
2023-04-11T06:40:41.244Z,77.84
2023-04-11T06:41:43.428Z,76.76
2023-04-11T06:42:45.250Z,76.71
2023-04-11T06:43:47.155Z,77.46
2023-04-11T06:44:48.898Z,75.03
2023-04-11T06:45:50.680Z,75.10
2023-04-11T06:46:52.568Z,75.51
2023-04-11T06:47:54.564Z,75.12
2023-04-11T06:48:56.428Z,74.96
2023-04-11T06:49:58.240Z,75.98
2023-04-11T06:51:00.186Z,74.90
2023-04-11T06:52:02.023Z,74.39
2023-04-11T06:53:03.941Z,75.85
2023-04-11T06:54:05.913Z,75.91
2023-04-11T06:55:08.097Z,76.22
2023-04-11T06:56:10.331Z,76.00
2023-04-11T06:57:12.039Z,76.07
2023-04-11T06:58:13.858Z,75.17
2023-04-11T06:59:15.585Z,75.76
2023-04-11T07:00:17.758Z,75.72
2023-04-11T07:01:19.461Z,75.25
2023-04-11T07:02:21.298Z,74.32
2023-04-11T07:03:23.249Z,74.70
2023-04-11T07:04:25.164Z,74.83
2023-04-11T07:05:26.941Z,74.91
2023-04-11T07:06:28.674Z,74.77
2023-04-11T07:07:30.384Z,74.49
2023-04-11T07:08:32.143Z,75.40
2023-04-11T07:09:33.886Z,75.18
2023-04-11T07:10:35.548Z,73.78
2023-04-11T07:11:37.234Z,73.36
2023-04-11T07:12:38.968Z,73.48
2023-04-11T07:13:40.846Z,73.17
2023-04-11T07:14:42.589Z,72.39
2023-04-11T07:15:44.423Z,71.96
2023-04-11T07:16:46.296Z,72.03
2023-04-11T07:17:51.447Z,73.11
2023-04-11T07:18:55.384Z,73.57
2023-04-11T07:19:57.089Z,74.30
2023-04-11T07:20:58.958Z,74.13
2023-04-11T07:22:00.653Z,71.69
2023-04-11T07:23:02.380Z,72.48
2023-04-11T07:24:05.751Z,72.61
2023-04-11T07:25:07.612Z,71.93
2023-04-11T07:26:09.862Z,71.41
2023-04-11T07:27:11.499Z,72.28
2023-04-11T07:28:13.213Z,70.87
2023-04-11T07:29:15.101Z,70.27
2023-04-11T07:30:17.254Z,70.07
2023-04-11T07:31:19.074Z,69.74
2023-04-11T07:32:20.840Z,69.62
2023-04-11T07:33:22.506Z,69.91
2023-04-11T07:34:24.365Z,70.71
2023-04-11T07:35:26.155Z,68.96
2023-04-11T07:36:27.860Z,69.67
2023-04-11T07:37:29.575Z,70.25
2023-04-11T07:38:31.244Z,69.23
2023-04-11T07:39:34.406Z,67.55
2023-04-11T07:40:36.102Z,68.52
2023-04-11T07:41:38.340Z,68.28
2023-04-11T07:42:41.039Z,67.69
2023-04-11T07:43:42.712Z,67.42
2023-04-11T07:44:44.416Z,67.24
2023-04-11T07:45:46.206Z,66.44
2023-04-11T07:46:47.903Z,66.33
2023-04-11T07:47:49.769Z,65.44
2023-04-11T07:48:51.554Z,65.78
2023-04-11T07:49:53.324Z,65.32
2023-04-11T07:50:55.329Z,64.98
2023-04-11T07:51:57.175Z,65.58
2023-04-11T07:52:58.947Z,64.60
2023-04-11T07:54:00.693Z,64.97
2023-04-11T07:55:02.835Z,64.52
2023-04-11T07:56:04.836Z,66.13
2023-04-11T07:57:06.594Z,65.80
2023-04-11T07:58:08.564Z,64.73
2023-04-11T07:59:10.330Z,63.79
2023-04-11T08:00:19.908Z,62.06
2023-04-11T08:01:23.213Z,62.84
2023-04-11T08:02:25.298Z,63.14
2023-04-11T08:03:27.561Z,62.01
2023-04-11T08:04:33.120Z,62.22
2023-04-11T08:05:36.694Z,62.72
2023-04-11T08:06:38.405Z,62.93
2023-04-11T08:07:40.160Z,63.05
2023-04-11T08:08:41.850Z,63.47
2023-04-11T08:09:43.678Z,62.16
2023-04-11T08:10:45.478Z,60.50
2023-04-11T08:11:47.133Z,62.00
2023-04-11T08:12:49.319Z,61.98
2023-04-11T08:13:50.972Z,62.56
2023-04-11T08:14:52.663Z,63.30
2023-04-11T08:15:54.444Z,63.65
2023-04-11T08:16:56.212Z,63.08
2023-04-11T08:17:58.029Z,63.27
2023-04-11T08:18:59.754Z,62.79
2023-04-11T08:20:02.252Z,63.83
2023-04-11T08:21:04.488Z,63.24
2023-04-11T08:22:06.202Z,64.10
2023-04-11T08:23:08.010Z,63.85
2023-04-11T08:24:09.902Z,63.32
2023-04-11T08:25:12.463Z,61.53
2023-04-11T08:26:14.180Z,60.65
2023-04-11T08:27:15.920Z,60.78
2023-04-11T08:28:17.617Z,61.74
2023-04-11T08:29:19.356Z,61.97
2023-04-11T08:30:21.128Z,59.98
2023-04-11T08:31:23.054Z,60.57
2023-04-11T08:32:25.394Z,58.27
2023-04-11T08:33:27.196Z,57.73
2023-04-11T08:34:29.044Z,58.07
2023-04-11T08:35:30.965Z,59.76
2023-04-11T08:36:32.765Z,60.31
2023-04-11T08:37:34.537Z,58.60
2023-04-11T08:38:37.059Z,60.04
2023-04-11T08:39:39.104Z,58.84
2023-04-11T08:40:40.876Z,57.72
2023-04-11T08:41:42.738Z,58.15
2023-04-11T08:42:44.742Z,56.51
2023-04-11T08:43:46.444Z,58.55
2023-04-11T08:44:59.219Z,59.11
2023-04-11T08:46:04.647Z,57.10
2023-04-11T08:47:07.613Z,57.71
2023-04-11T08:48:09.774Z,56.97
2023-04-11T08:49:11.516Z,57.45
2023-04-11T08:50:13.264Z,57.70
2023-04-11T08:51:22.389Z,58.82
2023-04-11T08:52:25.330Z,57.90
2023-04-11T08:53:28.071Z,57.21
2023-04-11T08:54:30.443Z,57.09
2023-04-11T08:55:35.031Z,57.24
2023-04-11T08:56:36.772Z,57.47
2023-04-11T08:57:38.527Z,55.28
2023-04-11T08:58:41.898Z,55.35
2023-04-11T08:59:51.776Z,54.86
2023-04-11T09:00:53.511Z,57.72
2023-04-11T09:02:07.889Z,56.17
2023-04-11T09:03:12.220Z,55.16
2023-04-11T09:04:14.064Z,55.91
2023-04-11T09:05:29.029Z,54.83
2023-04-11T09:06:31.716Z,54.57
2023-04-11T09:07:48.968Z,55.63
2023-04-11T09:08:50.690Z,54.87
2023-04-11T09:09:52.436Z,56.11
2023-04-11T09:11:01.535Z,55.14
2023-04-11T09:12:03.998Z,54.22
2023-04-11T09:13:32.097Z,54.16
2023-04-11T09:14:34.221Z,54.15
2023-04-11T09:15:35.994Z,56.19
2023-04-11T09:16:53.132Z,57.08
2023-04-11T09:17:57.592Z,57.43
2023-04-11T09:19:00.802Z,58.05
2023-04-11T09:20:16.287Z,58.53
2023-04-11T09:21:19.357Z,58.59
2023-04-11T09:22:21.097Z,57.13
2023-04-11T09:23:23.862Z,58.55
2023-04-11T09:24:27.626Z,58.82
2023-04-11T09:25:29.431Z,59.36
2023-04-11T09:26:31.099Z,59.64
2023-04-11T09:27:32.809Z,60.44
2023-04-11T09:28:45.034Z,60.73
2023-04-11T09:29:48.598Z,58.95
2023-04-11T09:30:51.971Z,58.92
2023-04-11T09:31:53.708Z,60.70
2023-04-11T09:32:55.470Z,60.51
2023-04-11T09:33:59.965Z,60.01
2023-04-11T09:35:18.944Z,60.87
2023-04-11T09:36:23.313Z,60.86
2023-04-11T09:37:25.046Z,60.84
2023-04-11T09:38:31.787Z,60.64
2023-04-11T09:39:33.545Z,60.07
2023-04-11T09:40:43.373Z,61.07
2023-04-11T09:41:45.528Z,60.03
2023-04-11T09:42:48.555Z,59.25
2023-04-11T09:43:54.952Z,60.02
2023-04-11T09:44:57.101Z,60.50
2023-04-11T09:46:09.639Z,60.30
2023-04-11T09:47:11.580Z,60.06
2023-04-11T09:48:13.677Z,60.59
2023-04-11T09:49:15.499Z,60.60
2023-04-11T09:50:17.586Z,60.13
2023-04-11T09:51:34.121Z,59.56
2023-04-11T09:52:36.969Z,59.63
2023-04-11T09:53:38.886Z,59.69
2023-04-11T09:54:40.706Z,59.74
2023-04-11T09:55:42.445Z,58.68
2023-04-11T09:56:44.355Z,58.04
2023-04-11T09:57:48.555Z,58.49
2023-04-11T09:58:50.978Z,57.78
2023-04-11T09:59:52.865Z,57.94
2023-04-11T10:00:56.057Z,55.68
2023-04-11T10:01:57.919Z,57.38
2023-04-11T10:02:59.981Z,57.09
2023-04-11T10:04:02.011Z,56.20
2023-04-11T10:05:04.769Z,54.99
2023-04-11T10:06:11.968Z,56.31
2023-04-11T10:07:14.814Z,54.69
2023-04-11T10:08:31.035Z,55.28
2023-04-11T10:09:33.182Z,54.66
2023-04-11T10:10:36.078Z,54.50
2023-04-11T10:11:41.719Z,54.63
2023-04-11T10:12:43.606Z,56.25
2023-04-11T10:13:46.784Z,55.64
2023-04-11T10:14:48.978Z,54.73
2023-04-11T10:16:14.009Z,54.61
2023-04-11T10:17:22.531Z,55.04
2023-04-11T10:18:25.565Z,55.42
2023-04-11T10:19:27.248Z,54.49
2023-04-11T10:20:31.765Z,51.78
2023-04-11T10:21:33.469Z,51.92
2023-04-11T10:22:41.406Z,51.11
2023-04-11T10:24:09.289Z,50.20
2023-04-11T10:25:20.962Z,48.06
2023-04-11T10:26:59.146Z,49.89
2023-04-11T10:28:01.317Z,49.07
2023-04-11T10:29:03.274Z,49.73
2023-04-11T10:30:05.510Z,49.39
2023-04-11T10:31:10.918Z,48.59
2023-04-11T10:32:15.432Z,48.94
2023-04-11T10:33:20.693Z,48.43
2023-04-11T10:34:22.470Z,47.59
2023-04-11T10:35:24.464Z,45.38
2023-04-11T10:36:26.166Z,45.78
2023-04-11T10:37:35.222Z,45.62
2023-04-11T10:38:42.723Z,46.97
2023-04-11T10:39:50.497Z,46.07
2023-04-11T10:41:14.738Z,43.17
2023-04-11T10:42:29.212Z,44.11
2023-04-11T10:43:30.971Z,40.83
2023-04-11T10:44:32.687Z,41.93
2023-04-11T10:45:34.558Z,40.70
2023-04-11T10:46:44.990Z,41.65
2023-04-11T10:47:58.962Z,41.40
2023-04-11T10:49:02.501Z,44.17
2023-04-11T10:50:04.608Z,45.95
2023-04-11T10:51:23.460Z,45.63
2023-04-11T10:52:25.273Z,46.94
2023-04-11T10:53:34.545Z,47.91
2023-04-11T10:54:36.232Z,49.49
2023-04-11T10:55:48.888Z,48.31
2023-04-11T10:56:54.855Z,48.31
2023-04-11T10:58:18.933Z,48.42
2023-04-11T10:59:32.775Z,49.11
2023-04-11T11:00:46.777Z,50.04
2023-04-11T11:01:55.096Z,50.10
2023-04-11T11:02:57.825Z,49.97
2023-04-11T11:03:59.976Z,50.53
2023-04-11T11:05:02.470Z,50.27
2023-04-11T11:06:09.128Z,50.52
2023-04-11T11:07:14.946Z,51.28
2023-04-11T11:08:39.744Z,51.48
2023-04-11T11:09:41.414Z,52.97
2023-04-11T11:10:45.152Z,52.32
2023-04-11T11:12:12.156Z,51.63
2023-04-11T11:13:17.103Z,50.88
2023-04-11T11:14:28.768Z,51.42
2023-04-11T11:15:34.186Z,52.49
2023-04-11T11:16:36.468Z,51.83
2023-04-11T11:17:38.337Z,50.59
2023-04-11T11:18:40.269Z,49.02
2023-04-11T11:19:46.292Z,49.44
2023-04-11T11:20:48.124Z,48.98
2023-04-11T11:21:51.243Z,48.87
2023-04-11T11:23:06.934Z,49.21
2023-04-11T11:24:08.696Z,49.49
2023-04-11T11:25:10.981Z,47.64
2023-04-11T11:26:12.745Z,47.28
2023-04-11T11:27:22.445Z,48.40
2023-04-11T11:28:24.634Z,48.51
2023-04-11T11:29:38.565Z,47.84
2023-04-11T11:30:51.661Z,48.54
2023-04-11T11:31:54.711Z,48.78
2023-04-11T11:32:56.619Z,50.71
2023-04-11T11:34:08.854Z,50.05
2023-04-11T11:35:20.481Z,49.66
2023-04-11T11:36:22.356Z,48.72
2023-04-11T11:37:24.185Z,49.31
2023-04-11T11:38:27.833Z,48.60
2023-04-11T11:39:31.061Z,48.11
2023-04-11T11:40:32.790Z,49.06
2023-04-11T11:41:35.326Z,48.68
2023-04-11T11:42:37.159Z,48.92
2023-04-11T11:43:38.976Z,48.75
2023-04-11T11:44:40.832Z,48.41
2023-04-11T11:45:43.356Z,49.41
2023-04-11T11:47:03.107Z,48.19
2023-04-11T11:48:04.978Z,48.88
2023-04-11T11:49:08.476Z,48.89
2023-04-11T11:50:10.581Z,47.19
2023-04-11T11:51:12.270Z,47.48
2023-04-11T11:52:40.052Z,47.10
2023-04-11T11:53:41.771Z,48.54
2023-04-11T11:54:47.316Z,49.12
2023-04-11T11:55:49.491Z,49.33
2023-04-11T11:56:51.863Z,48.30
2023-04-11T11:57:53.854Z,47.43
2023-04-11T11:58:55.755Z,48.01
2023-04-11T12:00:00.826Z,47.32
2023-04-11T12:01:02.646Z,46.62
2023-04-11T12:02:04.393Z,44.98
2023-04-11T12:03:08.475Z,44.30
2023-04-11T12:04:10.483Z,44.45
2023-04-11T12:05:12.793Z,45.17
2023-04-11T12:06:14.619Z,45.26
2023-04-11T12:07:21.639Z,45.80
2023-04-11T12:08:24.693Z,45.95
2023-04-11T12:09:30.789Z,45.33
2023-04-11T12:10:43.253Z,45.56
2023-04-11T12:11:45.024Z,46.41
2023-04-11T12:14:21.836Z,46.20
2023-04-11T12:15:24.060Z,46.00
2023-04-11T12:16:25.931Z,45.75
2023-04-11T12:17:36.301Z,46.90
2023-04-11T12:18:42.040Z,47.99
2023-04-11T12:19:43.711Z,47.83
2023-04-11T12:20:45.429Z,47.33
2023-04-11T12:21:47.141Z,48.38
2023-04-11T12:22:48.890Z,49.10
2023-04-11T12:23:50.529Z,48.66
2023-04-11T12:25:10.800Z,49.57
2023-04-11T12:26:12.466Z,47.75
2023-04-11T12:27:14.217Z,46.90
2023-04-11T12:28:16.045Z,46.62
2023-04-11T12:29:17.762Z,47.19
2023-04-11T12:30:19.630Z,46.57
2023-04-11T12:31:21.477Z,45.06
2023-04-11T12:32:23.230Z,46.00
2023-04-11T12:33:25.004Z,46.38
2023-04-11T12:34:26.655Z,45.23
2023-04-11T12:35:29.544Z,45.56
2023-04-11T12:37:34.007Z,45.55
2023-04-11T12:38:35.874Z,45.78
2023-04-11T12:39:37.605Z,45.37
2023-04-11T12:40:39.299Z,45.53
2023-04-11T12:41:41.004Z,45.71
2023-04-11T12:42:55.252Z,45.93
2023-04-11T12:43:58.024Z,44.31
2023-04-11T12:44:59.896Z,45.16
2023-04-11T12:46:01.530Z,45.73
2023-04-11T12:47:03.348Z,44.11
2023-04-11T12:48:05.375Z,43.77
2023-04-11T12:49:07.145Z,45.40
2023-04-11T12:50:09.983Z,45.95
2023-04-11T12:51:11.748Z,45.72
2023-04-11T12:52:13.502Z,45.80
2023-04-11T12:53:15.255Z,44.08
2023-04-11T12:54:17.002Z,42.67
2023-04-11T12:55:18.806Z,42.66
2023-04-11T12:56:20.595Z,42.33
2023-04-11T12:57:22.552Z,41.18
2023-04-11T12:58:24.257Z,42.21
2023-04-11T12:59:26.393Z,41.11
2023-04-11T13:00:28.646Z,40.90
2023-04-11T13:01:30.513Z,42.34
2023-04-11T13:02:41.682Z,41.75
2023-04-11T13:03:45.509Z,43.62
2023-04-11T13:04:51.957Z,42.68
2023-04-11T13:05:53.954Z,43.68
2023-04-11T13:06:55.985Z,44.28
2023-04-11T13:07:57.828Z,45.55
2023-04-11T13:08:59.605Z,45.52
2023-04-11T13:10:03.052Z,46.11
2023-04-11T13:11:04.914Z,46.44
2023-04-11T13:12:06.915Z,46.58
2023-04-11T13:13:17.945Z,46.13
2023-04-11T13:14:20.662Z,46.81
2023-04-11T13:15:22.456Z,46.70
2023-04-11T13:16:24.322Z,45.83
2023-04-11T13:17:26.134Z,45.67
2023-04-11T13:18:27.862Z,45.18
2023-04-11T13:19:29.631Z,45.59
2023-04-11T13:20:31.362Z,45.27
2023-04-11T13:21:33.120Z,44.83
2023-04-11T13:22:34.821Z,43.85
2023-04-11T13:23:36.567Z,44.52
2023-04-11T13:24:38.241Z,44.62
2023-04-11T13:25:39.934Z,43.70
2023-04-11T13:26:41.630Z,44.24
2023-04-11T13:27:43.343Z,43.92
2023-04-11T13:28:45.099Z,44.58
2023-04-11T13:29:46.756Z,44.66
2023-04-11T13:30:48.459Z,44.61
2023-04-11T13:31:50.261Z,44.75
2023-04-11T13:32:51.976Z,43.85
2023-04-11T13:33:53.947Z,44.15
2023-04-11T13:34:55.605Z,44.59